SBYS

Campo Fontenelle Airport

Pirassununga, Brazil
TAF SBYS 171000Z 1712/1724 16006KT 9999 SCT025 TN19/1712Z TX22/1718Z PROB30 TEMPO 1712/1721 18008KT SHRA BKN025 FEW035TCU RMK PDS
Issued Valid From Valid To
Aug-17 @ 10:00 UTC
(5 hours ago)
Aug-17 @ 12:00 UTC
(3 hours ago)
Aug-18 @ 00:00 UTC
(in 9 hours)
Aug-17 @ 12:00 to Aug-18 @ 00:00
TAF SBYS 171000Z 1712/1724 16006KT 9999 SCT025 TN19/1712Z TX22/1718Z
Wind Visibility Clouds
160° at 6 knots 10,000+ meters
  • Scattered at 2,500' AGL
Temporary  (Probability 30%) Aug-17 @ 12:00 to Aug-17 @ 21:00
PROB30 TEMPO 1712/1721 18008KT SHRA BKN025 FEW035TCU RMK PDS
Wind Clouds Conditions
180° at 8 knots
  • Broken at 2,500' AGL
  • Few at 3,500' AGL
  • Rain
TAF SBYS 171000Z 1712/1724 16006KT 9999 SCT025 TN19/1712Z TX22/1718Z PROB30 TEMPO 1712/1721 18008KT SHRA BKN025 FEW035TCU RMK PDS
Issued Aug-17 @ 10:00 UTC
(5 hours ago)
Valid From Aug-17 @ 12:00 UTC
(3 hours ago)
Valid To Aug-18 @ 00:00 UTC
(in 9 hours)
Aug-17 @ 12:00 - Aug-18 @ 00:00
Wind Visibility
160° at 6 knots 10,000+ meters
Clouds
  • Scattered at 2,500' AGL
Probability 30% Temporary Aug-17 @ 12:00 - Aug-17 @ 21:00
Wind
180° at 8 knots
Clouds
  • Broken at 2,500' AGL
  • Few at 3,500' AGL
Conditions
  • Rain